Time;durP1;ratioP1;P1;durP2;ratioP2;P2;SDS_P1;SDS_P2;PMS_P1;PMS_P2;Temp;Humidity;BMP_temperature;BMP_pressure;BME280_temperature;BME280_humidity;BME280_pressure;Samples;Min_cycle;Max_cycle;Signal;HPM_P1;HPM_P2
2021/12/12 11:39:39;;;;;;;39.88;21.55;;;;;;;7.52;100.00;102055.59;6259639;22;20026;-83
2021/12/12 11:42:36;;;;;;;40.28;20.73;;;;;;;7.33;100.00;102035.09;6268886;22;20621;-83
2021/12/12 11:45:20;;;;;;;42.60;22.23;;;;;;;7.53;100.00;102061.75;6269728;22;20007;-85
2021/12/12 11:48:09;;;;;;;39.15;21.48;;;;;;;7.52;100.00;102060.94;6268536;22;20003;-84
2021/12/12 11:50:46;;;;;;;39.17;21.38;;;;;;;7.43;100.00;102057.66;6269876;22;20052;-83
2021/12/12 11:53:32;;;;;;;40.08;21.42;;;;;;;7.40;100.00;102035.91;6268936;22;20418;-84
2021/12/12 11:56:07;;;;;;;40.30;22.13;;;;;;;7.49;100.00;102055.19;6269045;22;20008;-83
2021/12/12 11:58:59;;;;;;;39.10;21.27;;;;;;;7.61;100.00;102066.88;6269168;22;20021;-83
2021/12/12 12:01:31;;;;;;;41.20;21.77;;;;;;;7.63;100.00;102058.66;6268792;22;20008;-84
2021/12/12 12:04:11;;;;;;;39.13;21.45;;;;;;;7.64;100.00;102066.47;6268823;22;20060;-84
2021/12/12 12:07:01;;;;;;;39.58;22.30;;;;;;;7.73;100.00;102059.88;6269007;22;20003;-83
2021/12/12 12:09:38;;;;;;;37.78;20.92;;;;;;;7.77;100.00;102068.28;6269021;22;20000;-84
2021/12/12 12:12:12;;;;;;;37.95;20.80;;;;;;;7.83;100.00;102069.31;6268960;22;20433;-84
2021/12/12 12:14:56;;;;;;;35.63;19.60;;;;;;;7.85;100.00;102072.59;6269914;22;20497;-84
2021/12/12 12:17:24;;;;;;;34.58;19.67;;;;;;;7.85;100.00;102077.94;6269045;22;20007;-84
2021/12/12 12:19:52;;;;;;;37.45;20.50;;;;;;;7.83;100.00;102079.97;6268826;22;20004;-84
2021/12/12 12:22:34;;;;;;;36.85;20.60;;;;;;;7.78;100.00;102079.78;6268642;22;20012;-84
2021/12/12 12:25:17;;;;;;;34.30;19.25;;;;;;;7.73;100.00;102083.88;6269443;22;20096;-84
2021/12/12 12:27:58;;;;;;;36.60;21.38;;;;;;;7.72;100.00;102079.56;6268716;22;20008;-84
2021/12/12 12:31:01;;;;;;;36.25;20.58;;;;;;;7.77;100.00;102081.59;6268820;22;20412;-84
2021/12/12 12:33:55;;;;;;;38.55;20.73;;;;;;;7.80;100.00;102091.06;6269703;22;20083;-84
2021/12/12 12:36:43;;;;;;;35.83;21.10;;;;;;;7.81;100.00;102084.72;6269308;22;20020;-83
2021/12/12 12:39:39;;;;;;;39.97;22.05;;;;;;;7.88;100.00;102085.50;6269478;22;20011;-84
2021/12/12 12:42:29;;;;;;;41.45;21.95;;;;;;;7.92;100.00;102080.59;6268080;22;20012;-83
2021/12/12 12:45:32;;;;;;;39.28;21.20;;;;;;;7.97;100.00;102083.41;6267853;22;20325;-83
2021/12/12 12:48:44;;;;;;;38.95;20.52;;;;;;;7.83;100.00;102059.44;6267933;22;20004;-84
2021/12/12 12:51:35;;;;;;;37.97;22.75;;;;;;;7.96;100.00;102087.94;6282837;22;20064;-84
2021/12/12 12:54:22;;;;;;;40.53;22.23;;;;;;;8.04;100.00;102095.72;6267191;22;20011;-84
2021/12/12 12:57:16;;;;;;;42.95;24.23;;;;;;;8.06;100.00;102097.34;6268356;22;20010;-83
2021/12/12 13:00:29;;;;;;;44.67;24.45;;;;;;;8.10;100.00;102095.91;6268091;22;20014;-84
2021/12/12 13:03:04;;;;;;;45.22;25.58;;;;;;;8.06;100.00;102084.00;6275232;22;20450;-83
2021/12/12 13:05:50;;;;;;;45.28;25.02;;;;;;;8.14;100.00;102089.94;6268939;22;20386;-84
2021/12/12 13:08:49;;;;;;;45.97;24.42;;;;;;;8.14;100.00;102095.28;6267918;22;20475;-84
2021/12/12 13:11:18;;;;;;;43.25;24.00;;;;;;;8.02;100.00;102095.13;6268918;22;20000;-84
2021/12/12 13:13:58;;;;;;;42.95;24.10;;;;;;;8.08;100.00;102100.66;6267809;22;20029;-84
2021/12/12 13:16:31;;;;;;;41.33;23.55;;;;;;;8.00;100.00;102091.00;6268747;22;20027;-84
2021/12/12 13:19:05;;;;;;;39.58;22.60;;;;;;;7.99;100.00;102092.88;6266843;22;20060;-84
2021/12/12 13:22:03;;;;;;;43.35;23.13;;;;;;;8.04;100.00;102101.06;6268763;22;20012;-84
2021/12/12 13:24:57;;;;;;;46.10;23.73;;;;;;;8.04;100.00;102100.25;6267805;22;20452;-83
2021/12/12 13:28:04;;;;;;;42.97;22.38;;;;;;;8.06;100.00;102097.34;6253111;22;19999;-84
2021/12/12 13:31:17;;;;;;;42.95;22.55;;;;;;;7.97;100.00;102094.09;6276837;22;20031;-84
2021/12/12 13:34:09;;;;;;;45.88;24.20;;;;;;;8.02;100.00;102108.47;6267899;22;20498;-84
2021/12/12 13:36:50;;;;;;;48.08;24.27;;;;;;;8.03;100.00;102104.75;6268816;22;20000;-84
2021/12/12 13:39:46;;;;;;;45.63;24.40;;;;;;;8.04;100.00;102122.41;6266923;22;20012;-84
2021/12/12 13:42:30;;;;;;;42.97;22.90;;;;;;;8.04;100.00;102122.41;6266590;22;20032;-84
2021/12/12 13:45:26;;;;;;;42.47;22.98;;;;;;;8.01;100.00;102112.19;6266995;22;20306;-85
2021/12/12 13:48:16;;;;;;;40.67;21.75;;;;;;;8.02;100.00;102116.50;6239676;22;20072;-84
2021/12/12 13:51:15;;;;;;;40.08;22.17;;;;;;;8.05;100.00;102133.94;6266351;22;20054;-84
2021/12/12 13:54:07;;;;;;;43.47;22.85;;;;;;;7.99;100.00;102119.56;6285459;22;20003;-84
2021/12/12 13:56:41;;;;;;;45.58;23.75;;;;;;;8.01;100.00;102120.19;6268568;22;20008;-85
2021/12/12 13:59:27;;;;;;;42.10;23.63;;;;;;;8.01;100.00;102120.19;6267661;22;20014;-85
2021/12/12 14:02:00;;;;;;;45.80;24.02;;;;;;;7.91;100.00;102103.75;6268201;22;20315;-85
2021/12/12 14:04:57;;;;;;;44.60;24.95;;;;;;;8.00;100.00;102121.22;6268120;22;20099;-85
2021/12/12 14:07:32;;;;;;;45.08;24.90;;;;;;;7.96;100.00;102119.97;6267832;22;20019;-85
2021/12/12 14:09:59;;;;;;;47.95;25.70;;;;;;;7.92;100.00;102126.75;6267944;22;19996;-86
2021/12/12 14:12:29;;;;;;;51.97;27.77;;;;;;;7.93;100.00;102130.25;6268093;22;20015;-85
2021/12/12 14:15:01;;;;;;;48.03;25.77;;;;;;;7.80;100.00;102102.56;6268525;22;20011;-85
2021/12/12 14:17:42;;;;;;;;;;;;;;;8.00;100.00;102133.72;6268552;22;20125;-85
2021/12/12 14:20:12;;;;;;;50.28;25.65;;;;;;;7.94;100.00;102124.72;6267540;22;20345;-84
2021/12/12 14:22:38;;;;;;;46.80;25.73;;;;;;;7.96;100.00;102124.47;6268489;22;20075;-85
2021/12/12 14:25:07;;;;;;;53.60;27.52;;;;;;;7.97;100.00;102148.31;6273195;22;20064;-85
2021/12/12 14:27:34;;;;;;;51.55;26.38;;;;;;;7.93;100.00;102131.06;6268089;22;20465;-85
2021/12/12 14:30:04;;;;;;;51.17;27.58;;;;;;;7.81;100.00;102106.06;6240507;22;20438;-85
2021/12/12 14:32:38;;;;;;;56.22;28.42;;;;;;;7.95;100.00;102133.53;6270411;22;20057;-85
2021/12/12 14:35:14;;;;;;;54.70;28.58;;;;;;;8.06;100.00;102153.41;6268627;22;20595;-85
2021/12/12 14:37:41;;;;;;;56.70;27.25;;;;;;;7.83;100.00;102117.34;6267985;22;20363;-85
2021/12/12 14:40:15;;;;;;;58.25;28.75;;;;;;;8.08;100.00;102154.88;6267897;22;20076;-85
2021/12/12 14:42:49;;;;;;;55.92;28.05;;;;;;;8.05;100.00;102155.28;6268008;22;20035;-86
2021/12/12 14:45:19;;;;;;;57.10;27.23;;;;;;;8.03;100.00;102147.47;6268639;22;20083;-86
2021/12/12 14:47:48;;;;;;;51.72;27.67;;;;;;;8.00;100.00;102139.91;6268699;22;20011;-86
2021/12/12 14:50:24;;;;;;;58.72;28.73;;;;;;;7.84;100.00;102117.13;6270653;22;20414;-85
2021/12/12 14:52:57;;;;;;;54.10;28.30;;;;;;;8.06;100.00;102166.78;6274347;22;20004;-85
2021/12/12 14:55:28;;;;;;;60.17;30.95;;;;;;;8.08;100.00;102168.22;6269798;22;20007;-87
2021/12/12 14:58:05;;;;;;;59.97;30.75;;;;;;;8.06;100.00;102164.09;6268226;22;20029;-84
2021/12/12 15:00:38;;;;;;;58.58;30.73;;;;;;;8.07;100.00;102169.25;6269262;22;20502;-84
2021/12/12 15:03:07;;;;;;;62.55;30.73;;;;;;;8.08;100.00;102165.56;6268317;22;20060;-84
2021/12/12 15:05:36;;;;;;;63.80;30.58;;;;;;;8.09;100.00;102172.53;6269038;22;20098;-85
2021/12/12 15:08:13;;;;;;;65.45;30.98;;;;;;;8.03;100.00;102165.34;6268408;22;20015;-85
2021/12/12 15:11:13;;;;;;;64.85;31.38;;;;;;;8.04;100.00;102167.00;6269392;22;20008;-84
2021/12/12 15:13:42;;;;;;;60.50;30.60;;;;;;;7.98;100.00;102165.97;6269377;22;20000;-84
2021/12/12 15:16:35;;;;;;;66.80;33.05;;;;;;;8.08;100.00;102186.91;6269243;22;20008;-85
2021/12/12 15:19:19;;;;;;;71.47;33.35;;;;;;;8.08;100.00;102186.06;6268892;22;20030;-84
2021/12/12 15:21:55;;;;;;;66.47;32.88;;;;;;;8.07;100.00;102192.44;6268779;22;20098;-85
2021/12/12 15:24:24;;;;;;;63.83;32.03;;;;;;;8.06;100.00;102194.31;6269567;22;20000;-85
2021/12/12 15:27:02;;;;;;;68.18;32.90;;;;;;;8.08;100.00;102191.41;6267980;22;20337;-85
2021/12/12 15:29:30;;;;;;;67.38;33.80;;;;;;;8.03;100.00;102187.50;6269182;22;20000;-84
2021/12/12 15:32:06;;;;;;;73.05;35.30;;;;;;;8.09;100.00;102196.56;6268715;22;20011;-84
2021/12/12 15:34:35;;;;;;;70.72;35.38;;;;;;;8.08;100.00;102197.59;6268645;22;20008;-87
2021/12/12 15:37:04;;;;;;;72.78;34.75;;;;;;;7.95;100.00;102170.88;6268614;22;20011;-87
2021/12/12 15:39:40;;;;;;;75.18;35.75;;;;;;;8.11;100.00;102205.19;6269183;22;20086;-84
2021/12/12 15:42:10;;;;;;;71.90;35.30;;;;;;;8.07;100.00;102201.28;6269045;22;20837;-85
2021/12/12 15:44:37;;;;;;;67.90;33.78;;;;;;;8.07;100.00;102203.13;6269732;22;20019;-85
2021/12/12 15:47:08;;;;;;;66.65;33.38;;;;;;;7.86;100.00;102173.78;6268052;22;20402;-84
2021/12/12 15:49:41;;;;;;;69.30;33.03;;;;;;;8.08;100.00;102197.59;6268381;22;20011;-84
2021/12/12 15:52:13;;;;;;;69.90;33.55;;;;;;;8.12;100.00;102206.00;6269008;22;20008;-84
2021/12/12 15:54:39;;;;;;;72.65;33.92;;;;;;;8.14;100.00;102211.97;6269270;22;20000;-85
2021/12/12 15:57:05;;;;;;;75.40;35.13;;;;;;;8.12;100.00;102204.16;6268780;22;20036;-85
2021/12/12 15:59:38;;;;;;;77.30;35.87;;;;;;;8.10;100.00;102200.03;6268448;22;20008;-85
2021/12/12 16:02:15;;;;;;;78.63;35.42;;;;;;;8.13;100.00;102213.78;6269165;22;20721;-87
2021/12/12 16:04:42;;;;;;;94.88;38.33;;;;;;;8.06;100.00;102196.13;6267937;22;20010;-85
2021/12/12 16:07:17;;;;;;;93.88;39.72;;;;;;;8.14;100.00;102212.75;6269405;22;20015;-85
2021/12/12 16:09:48;;;;;;;114.03;45.13;;;;;;;8.08;100.00;102202.94;6268050;22;20003;-86
2021/12/12 16:12:17;;;;;;;113.60;44.40;;;;;;;8.19;100.00;102217.50;6269329;22;20326;-86
2021/12/12 16:14:43;;;;;;;127.35;46.83;;;;;;;8.19;100.00;102225.50;6268427;22;20012;-85
2021/12/12 16:17:37;;;;;;;115.10;45.00;;;;;;;8.17;100.00;102223.03;6268346;22;20041;-85
2021/12/12 16:20:19;;;;;;;117.85;45.78;;;;;;;8.12;100.00;102209.50;6268346;22;20033;-85
2021/12/12 16:22:47;;;;;;;;;;;;;;;8.22;100.00;102219.72;6266111;22;20090;-90
2021/12/12 16:25:15;;;;;;;139.07;48.17;;;;;;;8.04;100.00;102202.50;6269004;22;19911;-89
2021/12/12 16:27:44;;;;;;;145.75;50.78;;;;;;;8.22;100.00;102229.59;6270022;22;20008;-90
2021/12/12 16:30:25;;;;;;;161.25;52.83;;;;;;;8.25;100.00;102229.19;6268992;22;20000;-88
2021/12/12 16:32:57;;;;;;;163.65;54.72;;;;;;;8.11;100.00;102210.53;6269125;22;20105;-91
2021/12/12 16:35:24;;;;;;;164.43;55.28;;;;;;;8.09;100.00;102209.06;6269574;22;20102;-89
2021/12/12 16:37:53;;;;;;;170.55;55.47;;;;;;;8.13;100.00;102215.66;6267907;22;20048;-90
2021/12/12 16:40:33;;;;;;;178.85;57.70;;;;;;;8.28;100.00;102234.94;6268457;22;20015;-90
2021/12/12 16:43:08;;;;;;;190.05;61.28;;;;;;;8.15;100.00;102214.41;6269381;22;20012;-93
2021/12/12 16:45:39;;;;;;;190.43;59.97;;;;;;;8.24;100.00;102231.03;6269680;22;20082;-90
2021/12/12 16:48:21;;;;;;;194.73;59.45;;;;;;;8.29;100.00;102236.59;6268128;22;20008;-89
2021/12/12 16:50:51;;;;;;;;;;;;;;;8.33;100.00;102248.50;6269592;22;20003;-91
2021/12/12 16:53:25;;;;;;;191.75;62.45;;;;;;;8.36;100.00;102247.25;6267160;22;19911;-88
2021/12/12 16:55:52;;;;;;;212.18;63.78;;;;;;;8.18;100.00;102213.19;6267515;22;20295;-88
2021/12/12 16:58:27;;;;;;;210.27;63.78;;;;;;;8.40;100.00;102245.81;6241127;22;20434;-88
2021/12/12 17:00:57;;;;;;;189.15;59.53;;;;;;;8.24;100.00;102224.88;6268721;22;20094;-88
2021/12/12 17:03:26;;;;;;;204.15;61.85;;;;;;;8.41;100.00;102247.47;6268237;22;20014;-88
2021/12/12 17:06:10;;;;;;;197.93;64.10;;;;;;;8.45;100.00;102251.34;6268414;22;20005;-90
2021/12/12 17:11:16;;;;;;;192.07;60.30;;;;;;;8.26;100.00;102218.28;6281497;22;20015;-90
2021/12/12 17:13:42;;;;;;;193.55;60.17;;;;;;;8.29;100.00;102228.56;6268390;22;20090;-90
2021/12/12 17:16:09;;;;;;;191.48;61.15;;;;;;;8.46;100.00;102242.31;6268456;22;20069;-89
2021/12/12 17:18:37;;;;;;;188.27;59.38;;;;;;;8.44;100.00;102249.72;6267224;22;20004;-88
2021/12/12 17:21:13;;;;;;;193.27;58.88;;;;;;;8.45;100.00;102251.34;6269032;22;20007;-88
2021/12/12 17:23:42;;;;;;;198.00;57.97;;;;;;;8.49;100.00;102252.59;6268865;22;19999;-89
2021/12/12 17:26:11;;;;;;;193.27;59.40;;;;;;;8.35;100.00;102229.59;6268600;22;20434;-89
2021/12/12 17:28:37;;;;;;;200.23;59.67;;;;;;;8.35;100.00;102234.91;6266980;22;20004;-88
2021/12/12 17:31:09;;;;;;;188.82;60.30;;;;;;;8.36;100.00;102230.41;6269045;22;20004;-88
2021/12/12 17:33:57;;;;;;;;;;;;;;;8.53;100.00;102261.03;6269501;22;20441;-89
2021/12/12 17:36:29;;;;;;;180.98;57.05;;;;;;;8.55;100.00;102256.31;6269757;22;19926;-87
2021/12/12 17:38:59;;;;;;;;;;;;;;;8.55;100.00;102264.31;6267659;22;20007;-89
2021/12/12 17:41:33;;;;;;;192.45;59.85;;;;;;;8.59;100.00;102270.88;6268323;22;19907;-88
2021/12/12 17:44:11;;;;;;;178.05;59.85;;;;;;;8.59;100.00;102262.84;6268694;22;20014;-88
2021/12/12 17:47:11;;;;;;;182.88;57.47;;;;;;;8.48;100.00;102256.31;6241152;22;20035;-88
2021/12/12 17:50:14;;;;;;;173.27;58.85;;;;;;;8.62;100.00;102272.31;6267383;22;20055;-89
2021/12/12 17:52:57;;;;;;;177.93;56.85;;;;;;;8.64;100.00;102270.25;6268740;22;20015;-89
2021/12/12 17:55:39;;;;;;;161.70;55.88;;;;;;;8.64;100.00;102279.09;6269154;22;20007;-88
2021/12/12 17:58:36;;;;;;;;;;;;;;;8.67;100.00;102279.69;6268840;22;20031;-89
2021/12/12 18:01:20;;;;;;;179.27;57.28;;;;;;;8.50;100.00;102261.44;6198958;22;20317;-89
2021/12/12 18:03:49;;;;;;;169.95;58.35;;;;;;;8.55;100.00;102266.16;6268392;22;20004;-89
2021/12/12 18:06:24;;;;;;;166.73;59.30;;;;;;;8.61;100.00;102287.50;6268818;22;20330;-89
2021/12/12 18:08:52;;;;;;;168.52;56.95;;;;;;;8.64;100.00;102283.63;6268005;22;19999;-90
2021/12/12 18:11:19;;;;;;;168.27;56.47;;;;;;;8.71;100.00;102295.09;6268250;22;20008;-89
2021/12/12 18:13:52;;;;;;;160.57;57.38;;;;;;;8.66;100.00;102284.25;6268754;22;20076;-90
2021/12/12 18:16:23;;;;;;;163.07;56.60;;;;;;;8.71;100.00;102289.75;6267949;22;20004;-91
2021/12/12 18:19:30;;;;;;;144.73;54.75;;;;;;;8.50;100.00;102248.09;6268193;22;20004;-91
2021/12/12 18:21:56;;;;;;;161.27;56.08;;;;;;;8.68;100.00;102276.00;6268854;22;20423;-89
2021/12/12 18:24:29;;;;;;;166.77;54.83;;;;;;;8.72;100.00;102285.25;6270352;22;20029;-89
2021/12/12 18:27:08;;;;;;;163.65;55.72;;;;;;;8.69;100.00;102286.47;6269581;22;19999;-89
2021/12/12 18:29:51;;;;;;;155.45;53.90;;;;;;;8.67;100.00;102291.22;6270131;22;20004;-90
2021/12/12 18:32:41;;;;;;;158.73;52.28;;;;;;;8.66;100.00;102281.56;6269874;22;20044;-90
2021/12/12 18:35:20;;;;;;;161.80;54.30;;;;;;;8.53;100.00;102269.03;6269918;22;20004;-90
2021/12/12 18:37:53;;;;;;;148.23;54.03;;;;;;;8.62;100.00;102289.16;6269722;22;20010;-90
2021/12/12 18:40:32;;;;;;;159.68;53.63;;;;;;;8.63;100.00;102295.34;6269175;22;20098;-91
2021/12/12 18:43:01;;;;;;;151.23;53.30;;;;;;;8.66;100.00;102294.09;6270249;22;20035;-90
2021/12/12 18:45:43;;;;;;;150.70;52.97;;;;;;;8.38;100.00;102265.75;6270253;22;20015;-89
2021/12/12 18:48:13;;;;;;;157.13;54.15;;;;;;;8.60;100.00;102299.22;6269046;22;20012;-89
2021/12/12 18:50:55;;;;;;;155.68;53.70;;;;;;;8.51;100.00;102281.78;6269502;22;20096;-88
2021/12/12 18:53:29;;;;;;;154.80;53.50;;;;;;;8.39;100.00;102267.41;6270134;22;20015;-89
2021/12/12 18:55:59;;;;;;;153.20;52.97;;;;;;;8.60;100.00;102296.56;6269340;22;20083;-90
2021/12/12 18:58:29;;;;;;;158.95;52.92;;;;;;;8.73;100.00;102316.28;6270109;22;20004;-89
2021/12/12 19:01:24;;;;;;;171.20;53.95;;;;;;;8.73;100.00;102316.28;6268969;22;20004;-89
2021/12/12 19:03:57;;;;;;;148.57;53.63;;;;;;;8.51;100.00;102296.97;6270212;22;20072;-89
2021/12/12 19:06:28;;;;;;;156.02;54.30;;;;;;;8.72;100.00;102310.09;6269981;22;20000;-90
2021/12/12 19:08:54;;;;;;;160.23;54.35;;;;;;;8.47;100.00;102280.53;6268619;22;20007;-90
2021/12/12 19:11:24;;;;;;;156.75;54.00;;;;;;;8.55;100.00;102304.41;6269908;22;20000;-90
2021/12/12 19:13:55;;;;;;;158.15;53.15;;;;;;;8.64;100.00;102311.16;6270095;22;20010;-90
2021/12/12 19:16:24;;;;;;;167.13;55.37;;;;;;;8.78;100.00;102324.47;6269204;22;20311;-89
2021/12/12 19:18:53;;;;;;;142.35;51.70;;;;;;;8.58;100.00;102303.97;6269507;22;20004;-89
2021/12/12 19:21:29;;;;;;;143.82;51.67;;;;;;;8.62;100.00;102310.53;6270066;22;20007;-89
2021/12/12 19:24:06;;;;;;;141.85;50.17;;;;;;;8.78;100.00;102340.50;6269905;22;20004;-89
2021/12/12 19:26:35;;;;;;;147.40;51.25;;;;;;;8.77;100.00;102346.88;6270342;22;20048;-89
2021/12/12 19:29:10;;;;;;;132.50;50.58;;;;;;;8.78;100.00;102352.03;6271891;22;20004;-89
2021/12/12 19:31:37;;;;;;;131.13;50.97;;;;;;;8.59;100.00;102326.16;6270512;22;20003;-89
2021/12/12 19:34:06;;;;;;;124.25;50.80;;;;;;;8.55;100.00;102340.97;6269745;22;20008;-89
2021/12/12 19:36:38;;;;;;;142.70;51.47;;;;;;;8.74;100.00;102360.69;6270119;22;20000;-89
2021/12/12 19:39:10;;;;;;;131.32;49.75;;;;;;;8.56;100.00;102332.75;6267893;22;20084;-89
2021/12/12 19:41:36;;;;;;;142.45;52.67;;;;;;;8.59;100.00;102326.16;6269776;22;20004;-89
2021/12/12 19:44:05;;;;;;;147.23;50.72;;;;;;;8.66;100.00;102343.03;6269540;22;20008;-89
2021/12/12 19:46:33;;;;;;;128.00;48.75;;;;;;;8.64;100.00;102339.75;6269559;22;20079;-89
2021/12/12 19:49:06;;;;;;;129.30;49.95;;;;;;;8.79;100.00;102363.53;6268585;22;20039;-90
2021/12/12 19:51:39;;;;;;;133.90;51.15;;;;;;;8.77;100.00;102357.59;6270382;22;20207;-90
2021/12/12 19:54:21;;;;;;;129.93;51.03;;;;;;;8.67;100.00;102344.66;6271100;22;20004;-88
2021/12/12 19:56:54;;;;;;;131.40;50.55;;;;;;;8.75;100.00;102357.81;6271124;22;20006;-88
2021/12/12 19:59:22;;;;;;;120.85;48.05;;;;;;;8.75;100.00;102360.47;6269270;22;20004;-89
2021/12/12 20:01:49;;;;;;;128.50;50.45;;;;;;;8.62;100.00;102336.44;6269953;22;20003;-90
2021/12/12 20:04:21;;;;;;;124.15;49.28;;;;;;;8.73;100.00;102361.72;6269401;22;20087;-87
2021/12/12 20:06:53;;;;;;;129.82;51.92;;;;;;;8.74;100.00;102355.34;6269652;22;20119;-88
2021/12/12 20:09:21;;;;;;;;;;;;;;;8.76;100.00;102350.63;6266275;22;20076;-87
2021/12/12 20:11:50;;;;;;;130.90;50.47;;;;;;;8.75;100.00;102355.13;6269406;22;19907;-87
2021/12/12 20:14:21;;;;;;;141.68;52.63;;;;;;;8.59;100.00;102323.50;6268897;22;20003;-88
2021/12/12 20:16:52;;;;;;;137.20;51.80;;;;;;;8.73;100.00;102348.34;6268602;22;20079;-88
2021/12/12 20:19:43;;;;;;;132.73;52.25;;;;;;;8.73;100.00;102353.72;6268005;22;19999;-88
2021/12/12 20:22:16;;;;;;;126.70;50.60;;;;;;;8.71;100.00;102361.09;6272035;22;20004;-91
2021/12/12 20:24:51;;;;;;;127.32;52.20;;;;;;;8.69;100.00;102363.16;6267885;22;20019;-86
2021/12/12 20:27:24;;;;;;;130.52;51.55;;;;;;;8.45;100.00;102342.19;6268565;22;20323;-86
2021/12/12 20:30:08;;;;;;;128.52;52.75;;;;;;;8.59;100.00;102369.72;6267556;22;20004;-87
2021/12/12 20:32:38;;;;;;;128.23;51.08;;;;;;;8.53;100.00;102361.72;6267819;22;20011;-86
2021/12/12 20:35:11;;;;;;;129.43;50.83;;;;;;;8.44;100.00;102355.72;6268815;22;20000;-88
2021/12/12 20:37:36;;;;;;;129.52;50.35;;;;;;;8.58;100.00;102367.28;6267895;22;20430;-87
2021/12/12 20:40:09;;;;;;;144.85;54.22;;;;;;;8.41;100.00;102340.13;6242822;22;20018;-88
2021/12/12 20:42:41;;;;;;;139.20;54.10;;;;;;;8.66;100.00;102379.59;6267912;22;20307;-88
2021/12/12 20:45:20;;;;;;;143.30;53.30;;;;;;;8.61;100.00;102372.22;6268308;22;20004;-87
2021/12/12 20:48:05;;;;;;;139.60;53.28;;;;;;;8.60;100.00;102376.72;6267252;22;20006;-87
2021/12/12 20:50:49;;;;;;;143.55;54.47;;;;;;;8.63;100.00;102383.53;6268481;22;20426;-86
2021/12/12 20:53:23;;;;;;;138.52;54.38;;;;;;;8.71;100.00;102393.19;6268444;22;20117;-87
2021/12/12 20:55:54;;;;;;;137.18;53.10;;;;;;;8.70;100.00;102392.34;6268402;22;20023;-87
2021/12/12 20:58:25;;;;;;;130.77;52.25;;;;;;;8.59;100.00;102356.38;6268070;22;20004;-88
2021/12/12 21:00:58;;;;;;;145.68;54.03;;;;;;;8.71;100.00;102387.84;6267969;22;20336;-88
2021/12/12 21:03:30;;;;;;;135.88;52.25;;;;;;;8.66;100.00;102382.28;6267945;22;20007;-87
2021/12/12 21:06:04;;;;;;;138.57;51.15;;;;;;;8.74;100.00;102398.91;6268314;22;20004;-88
2021/12/12 21:08:34;;;;;;;131.52;52.05;;;;;;;8.72;100.00;102394.81;6267559;22;20052;-89
2021/12/12 21:11:06;;;;;;;135.75;52.15;;;;;;;8.74;100.00;102398.13;6268595;22;20015;-88
2021/12/12 21:13:33;;;;;;;140.07;52.58;;;;;;;8.71;100.00;102390.50;6269097;22;20311;-87
2021/12/12 21:16:13;;;;;;;129.40;52.65;;;;;;;8.69;100.00;102390.69;6268247;22;20007;-88
2021/12/12 21:18:40;;;;;;;132.63;52.47;;;;;;;8.75;100.00;102399.75;6267582;22;20088;-89
2021/12/12 21:21:11;;;;;;;136.65;52.55;;;;;;;8.64;100.00;102383.31;6268467;22;20080;-88
2021/12/12 21:23:42;;;;;;;123.47;50.40;;;;;;;8.76;100.00;102396.06;6268883;22;20004;-89
2021/12/12 21:26:16;;;;;;;131.32;49.63;;;;;;;8.58;100.00;102370.75;6268959;22;20003;-89
2021/12/12 21:28:49;;;;;;;130.18;51.33;;;;;;;8.72;100.00;102392.97;6241442;22;20000;-89
2021/12/12 21:31:24;;;;;;;129.07;49.20;;;;;;;8.61;100.00;102372.22;6269134;22;19991;-89
2021/12/12 21:34:07;;;;;;;127.43;51.00;;;;;;;8.77;100.00;102386.97;6268575;22;20406;-89
2021/12/12 21:36:55;;;;;;;125.10;50.75;;;;;;;8.74;100.00;102392.78;6268346;22;20003;-89
2021/12/12 21:39:41;;;;;;;122.40;49.20;;;;;;;8.71;100.00;102377.13;6268075;22;20004;-89
2021/12/12 21:42:17;;;;;;;121.70;49.90;;;;;;;8.74;100.00;102390.91;6267891;22;20012;-88
2021/12/12 21:45:14;;;;;;;123.45;51.67;;;;;;;8.74;100.00;102395.44;6268634;22;20026;-88
2021/12/12 21:47:50;;;;;;;127.75;48.42;;;;;;;8.77;100.00;102395.00;6274959;22;20083;-91
2021/12/12 21:50:26;;;;;;;121.60;49.55;;;;;;;8.72;100.00;102392.97;6268202;22;20680;-87
2021/12/12 21:53:05;;;;;;;122.43;50.47;;;;;;;8.75;100.00;102400.56;6268487;22;20026;-86
2021/12/12 21:55:53;;;;;;;126.57;50.60;;;;;;;8.76;100.00;102404.06;6268006;22;20692;-87
2021/12/12 21:58:27;;;;;;;124.40;49.05;;;;;;;8.77;100.00;102395.00;6267697;22;20080;-87
2021/12/12 22:00:55;;;;;;;120.20;48.65;;;;;;;8.77;100.00;102405.69;6268261;22;20012;-88
2021/12/12 22:03:28;;;;;;;133.52;51.40;;;;;;;8.71;100.00;102395.84;6269059;22;20087;-88
2021/12/12 22:05:53;;;;;;;122.97;49.63;;;;;;;8.54;100.00;102371.38;6268064;22;20044;-88
2021/12/12 22:08:26;;;;;;;120.57;48.95;;;;;;;8.60;100.00;102373.25;6268262;22;20003;-88
2021/12/12 22:10:56;;;;;;;129.02;51.05;;;;;;;8.74;100.00;102390.09;6268248;22;20004;-88
2021/12/12 22:13:26;;;;;;;130.90;49.90;;;;;;;8.72;100.00;102405.50;6269315;22;20004;-88
2021/12/12 22:15:56;;;;;;;131.18;50.63;;;;;;;8.64;100.00;102394.00;6268063;22;20008;-88
2021/12/12 22:18:31;;;;;;;123.15;50.70;;;;;;;8.72;100.00;102406.31;6268287;22;20003;-87
2021/12/12 22:20:59;;;;;;;127.38;50.85;;;;;;;8.67;100.00;102400.78;6267793;22;20003;-88
2021/12/12 22:23:26;;;;;;;131.27;51.85;;;;;;;8.74;100.00;102409.63;6268645;22;20010;-87
2021/12/12 22:25:55;;;;;;;132.25;51.53;;;;;;;8.64;100.00;102396.66;6267243;22;20008;-88
2021/12/12 22:28:38;;;;;;;129.50;52.25;;;;;;;8.74;100.00;102414.16;6268353;22;20064;-88
2021/12/12 22:31:07;;;;;;;130.57;52.22;;;;;;;8.71;100.00;102420.72;6268581;22;20007;-88
2021/12/12 22:33:44;;;;;;;128.35;50.03;;;;;;;8.67;100.00;102424.00;6268484;22;20008;-88
2021/12/12 22:36:12;;;;;;;123.25;50.55;;;;;;;8.58;100.00;102400.16;6267772;22;20002;-88
2021/12/12 22:38:41;;;;;;;138.68;52.38;;;;;;;8.73;100.00;102420.53;6268009;22;20000;-88
2021/12/12 22:41:11;;;;;;;127.55;52.03;;;;;;;8.68;100.00;102412.28;6267890;22;20019;-88
2021/12/12 22:43:40;;;;;;;129.80;51.50;;;;;;;8.72;100.00;102424.22;6268844;22;19999;-88
2021/12/12 22:46:09;;;;;;;131.18;52.53;;;;;;;8.54;100.00;102404.28;6268217;22;20000;-87
2021/12/12 22:48:42;;;;;;;130.43;51.97;;;;;;;8.70;100.00;102428.94;6267796;22;19999;-88
2021/12/12 22:51:14;;;;;;;135.70;52.78;;;;;;;8.72;100.00;102434.91;6268248;22;19999;-88
2021/12/12 22:53:48;;;;;;;130.70;52.95;;;;;;;8.63;100.00;102427.09;6267926;22;20397;-88
2021/12/12 22:56:20;;;;;;;133.75;53.35;;;;;;;8.69;100.00;102436.13;6267984;22;20292;-89
2021/12/12 22:58:52;;;;;;;144.88;55.63;;;;;;;8.61;100.00;102434.47;6266833;22;20011;-88
2021/12/12 23:01:35;;;;;;;127.70;53.13;;;;;;;8.64;100.00;102447.44;6268532;22;20007;-88
2021/12/12 23:04:03;;;;;;;129.15;54.67;;;;;;;8.66;100.00;102444.56;6267114;22;19999;-88
2021/12/12 23:06:31;;;;;;;147.18;55.97;;;;;;;8.47;100.00;102412.28;6268851;22;20024;-88
2021/12/12 23:09:02;;;;;;;133.43;55.00;;;;;;;8.61;100.00;102437.16;6268611;22;20047;-88
2021/12/12 23:11:30;;;;;;;137.65;54.75;;;;;;;8.50;100.00;102413.72;6270225;22;20011;-88
2021/12/12 23:14:07;;;;;;;131.27;53.85;;;;;;;8.67;100.00;102437.38;6269535;22;20008;-88
2021/12/12 23:16:36;;;;;;;139.18;57.03;;;;;;;8.62;100.00;102443.34;6269393;22;20024;-88
2021/12/12 23:19:12;;;;;;;129.10;54.60;;;;;;;8.58;100.00;102448.25;6268154;22;20357;-88
2021/12/12 23:21:40;;;;;;;124.55;52.97;;;;;;;8.59;100.00;102441.06;6242327;22;20035;-88
2021/12/12 23:24:29;;;;;;;134.85;54.00;;;;;;;8.58;100.00;102434.88;6269597;22;20022;-88
2021/12/12 23:27:29;;;;;;;129.20;53.60;;;;;;;8.59;100.00;102435.72;6253190;22;20103;-87
2021/12/12 23:29:58;;;;;;;127.75;53.00;;;;;;;8.40;100.00;102398.06;6268521;22;20000;-87